sensor_id;sensor_type;location;lat;lon;timestamp;pressure;altitude;pressure_sealevel;temperature
24201;BMP280;2801;50.972;7.856;2023-06-22T00:01:21;97809.97;;;19.31
24201;BMP280;2801;50.972;7.856;2023-06-22T00:03:50;97807.97;;;19.25
24201;BMP280;2801;50.972;7.856;2023-06-22T00:06:17;97802.84;;;19.20
24201;BMP280;2801;50.972;7.856;2023-06-22T00:08:44;97805.47;;;19.13
24201;BMP280;2801;50.972;7.856;2023-06-22T00:11:11;97810.06;;;19.09
24201;BMP280;2801;50.972;7.856;2023-06-22T00:13:39;97809.69;;;19.10
24201;BMP280;2801;50.972;7.856;2023-06-22T00:16:05;97804.63;;;19.09
24201;BMP280;2801;50.972;7.856;2023-06-22T00:18:33;97797.63;;;19.08
24201;BMP280;2801;50.972;7.856;2023-06-22T00:21:00;97792.22;;;19.11
24201;BMP280;2801;50.972;7.856;2023-06-22T00:23:27;97798.53;;;19.19
24201;BMP280;2801;50.972;7.856;2023-06-22T00:25:54;97802.09;;;19.23
24201;BMP280;2801;50.972;7.856;2023-06-22T00:28:21;97797.78;;;19.22
24201;BMP280;2801;50.972;7.856;2023-06-22T00:30:49;97793.25;;;19.29
24201;BMP280;2801;50.972;7.856;2023-06-22T00:33:16;97804.53;;;19.31
24201;BMP280;2801;50.972;7.856;2023-06-22T00:35:44;97799.16;;;19.35
24201;BMP280;2801;50.972;7.856;2023-06-22T00:38:11;97798.38;;;19.38
24201;BMP280;2801;50.972;7.856;2023-06-22T00:40:38;97789.50;;;19.41
24201;BMP280;2801;50.972;7.856;2023-06-22T00:43:05;97795.00;;;19.48
24201;BMP280;2801;50.972;7.856;2023-06-22T00:45:33;97808.25;;;19.53
24201;BMP280;2801;50.972;7.856;2023-06-22T00:48:01;97807.16;;;19.57
24201;BMP280;2801;50.972;7.856;2023-06-22T00:50:33;97807.97;;;19.61
24201;BMP280;2801;50.972;7.856;2023-06-22T00:53:06;97797.91;;;19.65
24201;BMP280;2801;50.972;7.856;2023-06-22T00:55:46;97800.25;;;19.67
24201;BMP280;2801;50.972;7.856;2023-06-22T00:58:14;97808.50;;;19.74
24201;BMP280;2801;50.972;7.856;2023-06-22T01:00:42;97802.31;;;19.77
24201;BMP280;2801;50.972;7.856;2023-06-22T01:03:09;97801.94;;;19.78
24201;BMP280;2801;50.972;7.856;2023-06-22T01:05:38;97805.84;;;19.81
24201;BMP280;2801;50.972;7.856;2023-06-22T01:08:37;97809.34;;;19.81
24201;BMP280;2801;50.972;7.856;2023-06-22T01:11:23;97803.47;;;19.76
24201;BMP280;2801;50.972;7.856;2023-06-22T01:14:23;97818.66;;;19.80
24201;BMP280;2801;50.972;7.856;2023-06-22T01:16:53;97817.47;;;19.78
24201;BMP280;2801;50.972;7.856;2023-06-22T01:19:45;97814.75;;;19.78
24201;BMP280;2801;50.972;7.856;2023-06-22T01:22:24;97818.69;;;19.84
24201;BMP280;2801;50.972;7.856;2023-06-22T01:25:00;97807.47;;;19.89
24201;BMP280;2801;50.972;7.856;2023-06-22T01:30:19;97794.31;;;19.98
24201;BMP280;2801;50.972;7.856;2023-06-22T01:32:48;97790.09;;;20.00
24201;BMP280;2801;50.972;7.856;2023-06-22T01:35:18;97778.78;;;19.98
24201;BMP280;2801;50.972;7.856;2023-06-22T01:37:45;97776.44;;;19.97
24201;BMP280;2801;50.972;7.856;2023-06-22T01:40:13;97785.41;;;19.97
24201;BMP280;2801;50.972;7.856;2023-06-22T01:42:42;97788.88;;;19.94
24201;BMP280;2801;50.972;7.856;2023-06-22T01:45:11;97775.25;;;19.91
24201;BMP280;2801;50.972;7.856;2023-06-22T01:47:39;97787.63;;;19.85
24201;BMP280;2801;50.972;7.856;2023-06-22T01:50:07;97783.72;;;19.86
24201;BMP280;2801;50.972;7.856;2023-06-22T01:52:34;97783.34;;;19.84
24201;BMP280;2801;50.972;7.856;2023-06-22T01:55:01;97787.63;;;19.88
24201;BMP280;2801;50.972;7.856;2023-06-22T01:57:28;97788.44;;;19.92
24201;BMP280;2801;50.972;7.856;2023-06-22T02:00:12;97783.78;;;19.89
24201;BMP280;2801;50.972;7.856;2023-06-22T02:02:57;97794.69;;;19.93
24201;BMP280;2801;50.972;7.856;2023-06-22T02:05:39;97791.56;;;19.91
24201;BMP280;2801;50.972;7.856;2023-06-22T02:08:20;97782.97;;;19.89
24201;BMP280;2801;50.972;7.856;2023-06-22T02:10:49;97782.97;;;19.89
24201;BMP280;2801;50.972;7.856;2023-06-22T02:13:18;97787.63;;;19.88
24201;BMP280;2801;50.972;7.856;2023-06-22T02:15:47;97790.03;;;19.93
24201;BMP280;2801;50.972;7.856;2023-06-22T02:18:14;97772.91;;;19.93
24201;BMP280;2801;50.972;7.856;2023-06-22T02:20:41;97751.44;;;19.81
24201;BMP280;2801;50.972;7.856;2023-06-22T02:23:08;97772.97;;;20.00
24201;BMP280;2801;50.972;7.856;2023-06-22T02:25:35;97774.91;;;19.99
24201;BMP280;2801;50.972;7.856;2023-06-22T02:28:03;97764.75;;;19.93
24201;BMP280;2801;50.972;7.856;2023-06-22T02:30:32;97771.84;;;20.04
24201;BMP280;2801;50.972;7.856;2023-06-22T02:32:59;97774.19;;;20.06
24201;BMP280;2801;50.972;7.856;2023-06-22T02:35:28;97776.50;;;20.07
24201;BMP280;2801;50.972;7.856;2023-06-22T02:37:59;97776.94;;;20.09
24201;BMP280;2801;50.972;7.856;2023-06-22T02:40:31;97774.25;;;20.13
24201;BMP280;2801;50.972;7.856;2023-06-22T02:42:58;97768.84;;;20.16
24201;BMP280;2801;50.972;7.856;2023-06-22T02:45:29;97767.69;;;20.17
24201;BMP280;2801;50.972;7.856;2023-06-22T02:47:56;97769.25;;;20.18
24201;BMP280;2801;50.972;7.856;2023-06-22T02:50:24;97771.59;;;20.20
24201;BMP280;2801;50.972;7.856;2023-06-22T02:52:51;97773.50;;;20.16
24201;BMP280;2801;50.972;7.856;2023-06-22T02:55:18;97766.50;;;20.15
24201;BMP280;2801;50.972;7.856;2023-06-22T02:57:45;97757.19;;;20.16
24201;BMP280;2801;50.972;7.856;2023-06-22T03:00:14;97761.81;;;20.12
24201;BMP280;2801;50.972;7.856;2023-06-22T03:02:46;97750.94;;;20.12
24201;BMP280;2801;50.972;7.856;2023-06-22T03:05:16;97757.88;;;20.09
24201;BMP280;2801;50.972;7.856;2023-06-22T03:07:45;97754.38;;;20.09
24201;BMP280;2801;50.972;7.856;2023-06-22T03:10:14;97765.72;;;20.11
24201;BMP280;2801;50.972;7.856;2023-06-22T03:12:42;97738.41;;;20.04
24201;BMP280;2801;50.972;7.856;2023-06-22T03:15:12;97750.56;;;20.13
24201;BMP280;2801;50.972;7.856;2023-06-22T03:17:40;97744.72;;;20.15
24201;BMP280;2801;50.972;7.856;2023-06-22T03:20:09;97750.56;;;20.17
24201;BMP280;2801;50.972;7.856;2023-06-22T03:22:41;97751.72;;;20.16
24201;BMP280;2801;50.972;7.856;2023-06-22T03:25:09;97744.34;;;20.16
24201;BMP280;2801;50.972;7.856;2023-06-22T03:27:42;97744.31;;;20.13
24201;BMP280;2801;50.972;7.856;2023-06-22T03:30:11;97749.38;;;20.14
24201;BMP280;2801;50.972;7.856;2023-06-22T03:32:39;97749.38;;;20.11
24201;BMP280;2801;50.972;7.856;2023-06-22T03:35:06;97754.72;;;20.04
24201;BMP280;2801;50.972;7.856;2023-06-22T03:37:33;97756.22;;;19.94
24201;BMP280;2801;50.972;7.856;2023-06-22T03:40:00;97767.47;;;19.93
24201;BMP280;2801;50.972;7.856;2023-06-22T03:42:27;97775.97;;;19.88
24201;BMP280;2801;50.972;7.856;2023-06-22T03:44:54;97778.28;;;19.86
24201;BMP280;2801;50.972;7.856;2023-06-22T03:47:22;97772.84;;;19.86
24201;BMP280;2801;50.972;7.856;2023-06-22T03:49:49;97766.63;;;19.85
24201;BMP280;2801;50.972;7.856;2023-06-22T03:52:16;97754.16;;;19.81
24201;BMP280;2801;50.972;7.856;2023-06-22T03:54:43;97759.66;;;19.88
24201;BMP280;2801;50.972;7.856;2023-06-22T03:57:10;97772.88;;;19.89
24201;BMP280;2801;50.972;7.856;2023-06-22T03:59:37;97757.31;;;19.90
24201;BMP280;2801;50.972;7.856;2023-06-22T04:02:04;97754.66;;;19.93
24201;BMP280;2801;50.972;7.856;2023-06-22T04:04:31;97758.56;;;19.96
24201;BMP280;2801;50.972;7.856;2023-06-22T04:06:59;97757.75;;;19.95
24201;BMP280;2801;50.972;7.856;2023-06-22T04:09:26;97755.78;;;19.92
24201;BMP280;2801;50.972;7.856;2023-06-22T04:11:53;97754.59;;;19.90
24201;BMP280;2801;50.972;7.856;2023-06-22T04:14:20;97758.88;;;19.87
24201;BMP280;2801;50.972;7.856;2023-06-22T04:16:47;97742.09;;;19.78
24201;BMP280;2801;50.972;7.856;2023-06-22T04:19:13;97757.66;;;19.81
24201;BMP280;2801;50.972;7.856;2023-06-22T04:21:44;97756.50;;;19.82
24201;BMP280;2801;50.972;7.856;2023-06-22T04:24:12;97758.03;;;19.80
24201;BMP280;2801;50.972;7.856;2023-06-22T04:26:39;97761.50;;;19.77
24201;BMP280;2801;50.972;7.856;2023-06-22T04:29:08;97771.97;;;19.75
24201;BMP280;2801;50.972;7.856;2023-06-22T04:31:37;97765.75;;;19.74
24201;BMP280;2801;50.972;7.856;2023-06-22T04:34:07;97766.50;;;19.71
24201;BMP280;2801;50.972;7.856;2023-06-22T04:36:39;97756.41;;;19.72
24201;BMP280;2801;50.972;7.856;2023-06-22T04:39:12;97762.97;;;19.67
24201;BMP280;2801;50.972;7.856;2023-06-22T04:41:40;97762.97;;;19.67
24201;BMP280;2801;50.972;7.856;2023-06-22T04:44:15;97759.81;;;19.65
24201;BMP280;2801;50.972;7.856;2023-06-22T04:46:57;97755.97;;;19.66
24201;BMP280;2801;50.972;7.856;2023-06-22T04:49:30;97759.09;;;19.68
24201;BMP280;2801;50.972;7.856;2023-06-22T04:52:11;97746.97;;;19.62
24201;BMP280;2801;50.972;7.856;2023-06-22T04:54:40;97756.72;;;19.63
24201;BMP280;2801;50.972;7.856;2023-06-22T04:57:14;97756.72;;;19.63
24201;BMP280;2801;50.972;7.856;2023-06-22T04:59:42;97739.09;;;19.50
24201;BMP280;2801;50.972;7.856;2023-06-22T05:02:09;97757.91;;;19.66
24201;BMP280;2801;50.972;7.856;2023-06-22T05:04:37;97757.19;;;19.72
24201;BMP280;2801;50.972;7.856;2023-06-22T05:07:07;97749.09;;;19.79
24201;BMP280;2801;50.972;7.856;2023-06-22T05:09:34;97743.28;;;19.84
24201;BMP280;2801;50.972;7.856;2023-06-22T05:12:02;97733.25;;;19.92
24201;BMP280;2801;50.972;7.856;2023-06-22T05:14:29;97734.81;;;19.93
24201;BMP280;2801;50.972;7.856;2023-06-22T05:16:57;97732.53;;;20.02
24201;BMP280;2801;50.972;7.856;2023-06-22T05:19:31;97718.22;;;20.08
24201;BMP280;2801;50.972;7.856;2023-06-22T05:22:00;97725.69;;;20.15
24201;BMP280;2801;50.972;7.856;2023-06-22T05:24:27;97726.47;;;20.19
24201;BMP280;2801;50.972;7.856;2023-06-22T05:26:54;97724.19;;;20.21
24201;BMP280;2801;50.972;7.856;2023-06-22T05:29:22;97726.91;;;20.24
24201;BMP280;2801;50.972;7.856;2023-06-22T05:31:49;97713.72;;;20.30
24201;BMP280;2801;50.972;7.856;2023-06-22T05:34:16;97719.59;;;20.39
24201;BMP280;2801;50.972;7.856;2023-06-22T05:36:43;97726.66;;;20.47
24201;BMP280;2801;50.972;7.856;2023-06-22T05:39:14;97727.47;;;20.54
24201;BMP280;2801;50.972;7.856;2023-06-22T05:41:42;97722.47;;;20.63
24201;BMP280;2801;50.972;7.856;2023-06-22T05:44:10;97720.16;;;20.69
24201;BMP280;2801;50.972;7.856;2023-06-22T05:46:40;97721.06;;;20.94
24201;BMP280;2801;50.972;7.856;2023-06-22T05:49:12;97720.00;;;21.26
24201;BMP280;2801;50.972;7.856;2023-06-22T05:51:40;97721.25;;;21.68
24201;BMP280;2801;50.972;7.856;2023-06-22T05:54:08;97721.66;;;22.08
24201;BMP280;2801;50.972;7.856;2023-06-22T05:56:35;97715.34;;;22.43
24201;BMP280;2801;50.972;7.856;2023-06-22T05:59:02;97716.09;;;22.64
24201;BMP280;2801;50.972;7.856;2023-06-22T06:01:29;97712.53;;;22.78
24201;BMP280;2801;50.972;7.856;2023-06-22T06:04:05;97713.28;;;22.89
24201;BMP280;2801;50.972;7.856;2023-06-22T06:06:32;97704.25;;;22.99
24201;BMP280;2801;50.972;7.856;2023-06-22T06:09:01;97707.34;;;23.11
24201;BMP280;2801;50.972;7.856;2023-06-22T06:11:28;97717.81;;;23.30
24201;BMP280;2801;50.972;7.856;2023-06-22T06:13:55;97707.53;;;23.45
24201;BMP280;2801;50.972;7.856;2023-06-22T06:16:23;97711.28;;;23.68
24201;BMP280;2801;50.972;7.856;2023-06-22T06:18:50;97706.91;;;23.78
24201;BMP280;2801;50.972;7.856;2023-06-22T06:21:17;97709.94;;;23.90
24201;BMP280;2801;50.972;7.856;2023-06-22T06:23:44;97708.81;;;23.84
24201;BMP280;2801;50.972;7.856;2023-06-22T06:26:11;97714.34;;;23.81
24201;BMP280;2801;50.972;7.856;2023-06-22T06:28:38;97712.28;;;23.95
24201;BMP280;2801;50.972;7.856;2023-06-22T06:31:05;97707.03;;;24.15
24201;BMP280;2801;50.972;7.856;2023-06-22T06:33:35;97709.53;;;24.36
24201;BMP280;2801;50.972;7.856;2023-06-22T06:36:02;97706.53;;;24.60
24201;BMP280;2801;50.972;7.856;2023-06-22T06:38:33;97702.78;;;24.85
24201;BMP280;2801;50.972;7.856;2023-06-22T06:40:59;97695.47;;;25.01
24201;BMP280;2801;50.972;7.856;2023-06-22T06:43:26;97696.66;;;25.04
24201;BMP280;2801;50.972;7.856;2023-06-22T06:45:53;97691.53;;;25.06
24201;BMP280;2801;50.972;7.856;2023-06-22T06:48:20;97681.56;;;25.19
24201;BMP280;2801;50.972;7.856;2023-06-22T06:50:47;97689.66;;;25.29
24201;BMP280;2801;50.972;7.856;2023-06-22T06:53:14;97690.44;;;25.56
24201;BMP280;2801;50.972;7.856;2023-06-22T06:55:41;97685.25;;;25.85
24201;BMP280;2801;50.972;7.856;2023-06-22T06:58:08;97689.53;;;26.12
24201;BMP280;2801;50.972;7.856;2023-06-22T07:00:36;97680.88;;;26.33
24201;BMP280;2801;50.972;7.856;2023-06-22T07:03:04;97687.78;;;26.22
24201;BMP280;2801;50.972;7.856;2023-06-22T07:05:32;97704.91;;;26.29
24201;BMP280;2801;50.972;7.856;2023-06-22T07:07:58;97700.63;;;26.28
24201;BMP280;2801;50.972;7.856;2023-06-22T07:10:26;97692.88;;;26.23
24201;BMP280;2801;50.972;7.856;2023-06-22T07:12:53;97685.53;;;26.17
24201;BMP280;2801;50.972;7.856;2023-06-22T07:15:21;97678.97;;;26.11
24201;BMP280;2801;50.972;7.856;2023-06-22T07:17:48;97680.47;;;26.15
24201;BMP280;2801;50.972;7.856;2023-06-22T07:20:15;97664.47;;;26.30
24201;BMP280;2801;50.972;7.856;2023-06-22T07:22:44;97658.56;;;26.31
24201;BMP280;2801;50.972;7.856;2023-06-22T07:25:14;97658.56;;;26.31
24201;BMP280;2801;50.972;7.856;2023-06-22T07:28:04;97650.69;;;26.10
24201;BMP280;2801;50.972;7.856;2023-06-22T07:30:33;97644.28;;;25.94
24201;BMP280;2801;50.972;7.856;2023-06-22T07:33:01;97638.22;;;25.83
24201;BMP280;2801;50.972;7.856;2023-06-22T07:35:35;97645.31;;;25.80
24201;BMP280;2801;50.972;7.856;2023-06-22T07:38:02;97646.16;;;25.77
24201;BMP280;2801;50.972;7.856;2023-06-22T07:40:32;97656.13;;;25.68
24201;BMP280;2801;50.972;7.856;2023-06-22T07:43:00;97666.34;;;25.67
24201;BMP280;2801;50.972;7.856;2023-06-22T07:45:27;97658.16;;;25.64
24201;BMP280;2801;50.972;7.856;2023-06-22T07:47:54;97662.09;;;25.63
24201;BMP280;2801;50.972;7.856;2023-06-22T07:50:21;97659.81;;;25.58
24201;BMP280;2801;50.972;7.856;2023-06-22T07:52:48;97657.84;;;25.58
24201;BMP280;2801;50.972;7.856;2023-06-22T07:55:15;97648.34;;;25.63
24201;BMP280;2801;50.972;7.856;2023-06-22T07:57:42;97645.72;;;25.79
24201;BMP280;2801;50.972;7.856;2023-06-22T08:00:10;97645.16;;;25.91
24201;BMP280;2801;50.972;7.856;2023-06-22T08:02:45;97649.56;;;26.08
24201;BMP280;2801;50.972;7.856;2023-06-22T08:05:14;97647.00;;;26.20
24201;BMP280;2801;50.972;7.856;2023-06-22T08:07:45;97635.03;;;26.30
24201;BMP280;2801;50.972;7.856;2023-06-22T08:10:14;97632.06;;;26.41
24201;BMP280;2801;50.972;7.856;2023-06-22T08:12:41;97625.59;;;26.51
24201;BMP280;2801;50.972;7.856;2023-06-22T08:15:09;97633.94;;;26.67
24201;BMP280;2801;50.972;7.856;2023-06-22T08:17:38;97624.38;;;26.91
24201;BMP280;2801;50.972;7.856;2023-06-22T08:20:07;97626.50;;;27.19
24201;BMP280;2801;50.972;7.856;2023-06-22T08:22:40;97628.44;;;27.38
24201;BMP280;2801;50.972;7.856;2023-06-22T08:25:08;97623.47;;;27.65
24201;BMP280;2801;50.972;7.856;2023-06-22T08:27:36;97624.13;;;28.01
24201;BMP280;2801;50.972;7.856;2023-06-22T08:30:04;97624.34;;;28.23
24201;BMP280;2801;50.972;7.856;2023-06-22T08:32:31;97609.97;;;28.15
24201;BMP280;2801;50.972;7.856;2023-06-22T08:35:00;97624.25;;;28.26
24201;BMP280;2801;50.972;7.856;2023-06-22T08:37:28;97621.47;;;28.26
24201;BMP280;2801;50.972;7.856;2023-06-22T08:40:05;97614.38;;;28.41
24201;BMP280;2801;50.972;7.856;2023-06-22T08:42:36;97605.28;;;28.57
24201;BMP280;2801;50.972;7.856;2023-06-22T08:45:03;97590.31;;;28.70
24201;BMP280;2801;50.972;7.856;2023-06-22T08:47:30;97584.91;;;28.79
24201;BMP280;2801;50.972;7.856;2023-06-22T08:49:57;97580.84;;;28.84
24201;BMP280;2801;50.972;7.856;2023-06-22T08:52:24;97584.91;;;28.79
24201;BMP280;2801;50.972;7.856;2023-06-22T08:54:51;97585.84;;;28.48
24201;BMP280;2801;50.972;7.856;2023-06-22T08:57:18;97575.34;;;28.14
24201;BMP280;2801;50.972;7.856;2023-06-22T08:59:45;97585.66;;;27.81
24201;BMP280;2801;50.972;7.856;2023-06-22T09:02:12;97585.84;;;27.74
24201;BMP280;2801;50.972;7.856;2023-06-22T09:04:39;97579.47;;;27.61
24201;BMP280;2801;50.972;7.856;2023-06-22T09:07:07;97576.63;;;27.65
24201;BMP280;2801;50.972;7.856;2023-06-22T09:09:34;97581.47;;;27.61
24201;BMP280;2801;50.972;7.856;2023-06-22T09:12:01;97565.44;;;27.72
24201;BMP280;2801;50.972;7.856;2023-06-22T09:14:28;97560.41;;;27.99
24201;BMP280;2801;50.972;7.856;2023-06-22T09:16:55;97552.31;;;28.21
24201;BMP280;2801;50.972;7.856;2023-06-22T09:19:22;97555.78;;;28.37
24201;BMP280;2801;50.972;7.856;2023-06-22T09:21:49;97544.69;;;28.53
24201;BMP280;2801;50.972;7.856;2023-06-22T09:24:16;97551.34;;;28.68
24201;BMP280;2801;50.972;7.856;2023-06-22T09:26:43;97547.38;;;28.82
24201;BMP280;2801;50.972;7.856;2023-06-22T09:29:10;97551.81;;;28.79
24201;BMP280;2801;50.972;7.856;2023-06-22T09:31:37;97538.13;;;28.76
24201;BMP280;2801;50.972;7.856;2023-06-22T09:34:04;97527.75;;;28.80
24201;BMP280;2801;50.972;7.856;2023-06-22T09:36:31;97522.97;;;28.80
24201;BMP280;2801;50.972;7.856;2023-06-22T09:38:58;97524.44;;;28.85
24201;BMP280;2801;50.972;7.856;2023-06-22T09:41:25;97519.34;;;28.83
24201;BMP280;2801;50.972;7.856;2023-06-22T09:43:52;97505.69;;;28.80
24201;BMP280;2801;50.972;7.856;2023-06-22T09:46:23;97492.97;;;28.70
24201;BMP280;2801;50.972;7.856;2023-06-22T09:48:52;97501.91;;;28.74
24201;BMP280;2801;50.972;7.856;2023-06-22T09:51:19;97486.25;;;28.71
24201;BMP280;2801;50.972;7.856;2023-06-22T09:53:48;97481.50;;;28.71
24201;BMP280;2801;50.972;7.856;2023-06-22T09:56:15;97476.88;;;28.81
24201;BMP280;2801;50.972;7.856;2023-06-22T09:58:47;97459.50;;;28.93
24201;BMP280;2801;50.972;7.856;2023-06-22T10:01:14;97462.50;;;28.98
24201;BMP280;2801;50.972;7.856;2023-06-22T10:03:42;97449.03;;;29.00
24201;BMP280;2801;50.972;7.856;2023-06-22T10:06:09;97448.81;;;28.95
24201;BMP280;2801;50.972;7.856;2023-06-22T10:08:36;97452.47;;;28.92
24201;BMP280;2801;50.972;7.856;2023-06-22T10:11:03;97450.28;;;28.87
24201;BMP280;2801;50.972;7.856;2023-06-22T10:13:30;97450.72;;;28.85
24201;BMP280;2801;50.972;7.856;2023-06-22T10:15:57;97445.72;;;28.80
24201;BMP280;2801;50.972;7.856;2023-06-22T10:18:24;97441.00;;;28.68
24201;BMP280;2801;50.972;7.856;2023-06-22T10:20:52;97439.03;;;28.56
24201;BMP280;2801;50.972;7.856;2023-06-22T10:23:20;97440.13;;;28.46
24201;BMP280;2801;50.972;7.856;2023-06-22T10:25:48;97440.97;;;28.31
24201;BMP280;2801;50.972;7.856;2023-06-22T10:28:15;97437.41;;;28.18
24201;BMP280;2801;50.972;7.856;2023-06-22T10:30:43;97455.50;;;28.06
24201;BMP280;2801;50.972;7.856;2023-06-22T10:33:11;97448.41;;;27.93
24201;BMP280;2801;50.972;7.856;2023-06-22T10:35:39;97451.41;;;27.82
24201;BMP280;2801;50.972;7.856;2023-06-22T10:38:06;97459.56;;;27.73
24201;BMP280;2801;50.972;7.856;2023-06-22T10:40:33;97453.97;;;27.60
24201;BMP280;2801;50.972;7.856;2023-06-22T10:43:00;97439.47;;;27.44
24201;BMP280;2801;50.972;7.856;2023-06-22T10:45:27;97437.28;;;27.39
24201;BMP280;2801;50.972;7.856;2023-06-22T10:47:55;97443.38;;;27.30
24201;BMP280;2801;50.972;7.856;2023-06-22T10:50:23;97430.31;;;27.18
24201;BMP280;2801;50.972;7.856;2023-06-22T10:52:51;97447.97;;;27.21
24201;BMP280;2801;50.972;7.856;2023-06-22T10:55:18;97441.91;;;27.10
24201;BMP280;2801;50.972;7.856;2023-06-22T10:57:45;97426.91;;;26.98
24201;BMP280;2801;50.972;7.856;2023-06-22T11:00:14;97441.34;;;26.86
24201;BMP280;2801;50.972;7.856;2023-06-22T11:02:43;97453.53;;;26.69
24201;BMP280;2801;50.972;7.856;2023-06-22T11:05:11;97481.06;;;26.50
24201;BMP280;2801;50.972;7.856;2023-06-22T11:07:42;97507.31;;;26.35
24201;BMP280;2801;50.972;7.856;2023-06-22T11:10:15;97522.22;;;26.18
24201;BMP280;2801;50.972;7.856;2023-06-22T11:12:43;97552.19;;;26.09
24201;BMP280;2801;50.972;7.856;2023-06-22T11:15:10;97556.00;;;25.95
24201;BMP280;2801;50.972;7.856;2023-06-22T11:17:37;97541.31;;;25.82
24201;BMP280;2801;50.972;7.856;2023-06-22T11:20:05;97518.84;;;25.68
24201;BMP280;2801;50.972;7.856;2023-06-22T11:22:41;97511.19;;;25.56
24201;BMP280;2801;50.972;7.856;2023-06-22T11:25:08;97515.06;;;25.39
24201;BMP280;2801;50.972;7.856;2023-06-22T11:27:36;97525.59;;;25.17
24201;BMP280;2801;50.972;7.856;2023-06-22T11:30:04;97513.31;;;24.99
24201;BMP280;2801;50.972;7.856;2023-06-22T11:32:31;97493.16;;;24.86
24201;BMP280;2801;50.972;7.856;2023-06-22T11:34:58;97487.47;;;24.73
24201;BMP280;2801;50.972;7.856;2023-06-22T11:37:25;97495.94;;;24.55
24201;BMP280;2801;50.972;7.856;2023-06-22T11:39:52;97489.41;;;24.46
24201;BMP280;2801;50.972;7.856;2023-06-22T11:42:33;97484.44;;;24.37
24201;BMP280;2801;50.972;7.856;2023-06-22T11:45:01;97472.03;;;24.29
24201;BMP280;2801;50.972;7.856;2023-06-22T11:47:29;97463.91;;;24.22
24201;BMP280;2801;50.972;7.856;2023-06-22T11:49:56;97462.78;;;24.20
24201;BMP280;2801;50.972;7.856;2023-06-22T11:52:23;97467.47;;;24.19
24201;BMP280;2801;50.972;7.856;2023-06-22T11:54:50;97468.75;;;24.11
24201;BMP280;2801;50.972;7.856;2023-06-22T11:57:17;97494.28;;;24.01
24201;BMP280;2801;50.972;7.856;2023-06-22T11:59:44;97533.53;;;23.88
24201;BMP280;2801;50.972;7.856;2023-06-22T12:02:33;97548.91;;;23.78
24201;BMP280;2801;50.972;7.856;2023-06-22T12:05:00;97520.78;;;23.74
24201;BMP280;2801;50.972;7.856;2023-06-22T12:07:28;97481.03;;;23.63
24201;BMP280;2801;50.972;7.856;2023-06-22T12:09:55;97468.75;;;23.41
24201;BMP280;2801;50.972;7.856;2023-06-22T12:12:23;97483.72;;;23.29
24201;BMP280;2801;50.972;7.856;2023-06-22T12:14:50;97485.00;;;23.14
24201;BMP280;2801;50.972;7.856;2023-06-22T12:17:16;97501.53;;;22.97
24201;BMP280;2801;50.972;7.856;2023-06-22T12:19:43;97500.09;;;22.85
24201;BMP280;2801;50.972;7.856;2023-06-22T12:22:10;97519.31;;;22.71
24201;BMP280;2801;50.972;7.856;2023-06-22T12:24:37;97496.78;;;22.57
24201;BMP280;2801;50.972;7.856;2023-06-22T12:27:04;97466.38;;;22.41
24201;BMP280;2801;50.972;7.856;2023-06-22T12:29:31;97452.38;;;22.39
24201;BMP280;2801;50.972;7.856;2023-06-22T12:31:58;97440.66;;;22.38
24201;BMP280;2801;50.972;7.856;2023-06-22T12:34:25;97444.53;;;22.41
24201;BMP280;2801;50.972;7.856;2023-06-22T12:36:52;97442.59;;;22.41
24201;BMP280;2801;50.972;7.856;2023-06-22T12:39:21;97446.47;;;22.44
24201;BMP280;2801;50.972;7.856;2023-06-22T12:41:48;97435.97;;;22.39
24201;BMP280;2801;50.972;7.856;2023-06-22T12:44:16;97426.63;;;22.36
24201;BMP280;2801;50.972;7.856;2023-06-22T12:46:42;97417.56;;;22.53
24201;BMP280;2801;50.972;7.856;2023-06-22T12:49:10;97407.56;;;22.84
24201;BMP280;2801;50.972;7.856;2023-06-22T12:51:40;97378.75;;;23.13
24201;BMP280;2801;50.972;7.856;2023-06-22T12:54:10;97360.19;;;23.34
24201;BMP280;2801;50.972;7.856;2023-06-22T12:56:38;97358.84;;;23.49
24201;BMP280;2801;50.972;7.856;2023-06-22T12:59:05;97351.94;;;23.68
24201;BMP280;2801;50.972;7.856;2023-06-22T13:01:33;97347.50;;;23.81
24201;BMP280;2801;50.972;7.856;2023-06-22T13:04:00;97336.34;;;23.95
24201;BMP280;2801;50.972;7.856;2023-06-22T13:06:27;97341.03;;;24.21
24201;BMP280;2801;50.972;7.856;2023-06-22T13:08:56;97344.94;;;24.46
24201;BMP280;2801;50.972;7.856;2023-06-22T13:11:44;97348.16;;;24.68
24201;BMP280;2801;50.972;7.856;2023-06-22T13:14:11;97344.56;;;24.71
24201;BMP280;2801;50.972;7.856;2023-06-22T13:16:38;97345.25;;;24.75
24201;BMP280;2801;50.972;7.856;2023-06-22T13:19:05;97348.44;;;24.74
24201;BMP280;2801;50.972;7.856;2023-06-22T13:21:34;97336.28;;;24.75
24201;BMP280;2801;50.972;7.856;2023-06-22T13:24:01;97336.03;;;24.65
24201;BMP280;2801;50.972;7.856;2023-06-22T13:26:28;97333.00;;;24.60
24201;BMP280;2801;50.972;7.856;2023-06-22T13:28:55;97332.47;;;24.68
24201;BMP280;2801;50.972;7.856;2023-06-22T13:31:22;97326.44;;;24.77
24201;BMP280;2801;50.972;7.856;2023-06-22T13:33:49;97316.06;;;24.88
24201;BMP280;2801;50.972;7.856;2023-06-22T13:36:19;97318.22;;;25.20
24201;BMP280;2801;50.972;7.856;2023-06-22T13:38:46;97298.16;;;25.42
24201;BMP280;2801;50.972;7.856;2023-06-22T13:41:13;97300.75;;;25.69
24201;BMP280;2801;50.972;7.856;2023-06-22T13:43:40;97283.31;;;25.75
24201;BMP280;2801;50.972;7.856;2023-06-22T13:46:07;97262.31;;;25.85
24201;BMP280;2801;50.972;7.856;2023-06-22T13:48:35;97246.75;;;25.98
24201;BMP280;2801;50.972;7.856;2023-06-22T13:51:02;97246.31;;;25.99
24201;BMP280;2801;50.972;7.856;2023-06-22T13:53:29;97244.75;;;26.14
24201;BMP280;2801;50.972;7.856;2023-06-22T13:55:56;97224.31;;;25.99
24201;BMP280;2801;50.972;7.856;2023-06-22T13:58:23;97215.84;;;26.10
24201;BMP280;2801;50.972;7.856;2023-06-22T14:00:50;97223.66;;;26.11
24201;BMP280;2801;50.972;7.856;2023-06-22T14:03:19;97213.94;;;26.23
24201;BMP280;2801;50.972;7.856;2023-06-22T14:05:46;97199.09;;;26.20
24201;BMP280;2801;50.972;7.856;2023-06-22T14:08:13;97199.31;;;26.42
24201;BMP280;2801;50.972;7.856;2023-06-22T14:11:01;97191.53;;;26.69
24201;BMP280;2801;50.972;7.856;2023-06-22T14:13:28;97194.56;;;26.87
24201;BMP280;2801;50.972;7.856;2023-06-22T14:15:55;97172.84;;;26.76
24201;BMP280;2801;50.972;7.856;2023-06-22T14:18:22;97174.50;;;26.74
24201;BMP280;2801;50.972;7.856;2023-06-22T14:20:49;97168.56;;;26.75
24201;BMP280;2801;50.972;7.856;2023-06-22T14:23:16;97154.16;;;26.71
24201;BMP280;2801;50.972;7.856;2023-06-22T14:25:43;97147.75;;;26.62
24201;BMP280;2801;50.972;7.856;2023-06-22T14:28:10;97139.25;;;26.40
24201;BMP280;2801;50.972;7.856;2023-06-22T14:30:37;97151.34;;;26.14
24201;BMP280;2801;50.972;7.856;2023-06-22T14:33:04;97152.22;;;25.95